sensor_id;sensor_type;location;lat;lon;timestamp;temperature;humidity
72320;SHT30;60269;52.502;16.732;2022-08-21T00:00:59;17.66;96.41
72320;SHT30;60269;52.502;16.732;2022-08-21T00:04:52;17.69;96.24
72320;SHT30;60269;52.502;16.732;2022-08-21T00:08:38;17.67;96.16
72320;SHT30;60269;52.502;16.732;2022-08-21T00:12:30;17.62;96.12
72320;SHT30;60269;52.502;16.732;2022-08-21T00:16:16;17.69;96.03
72320;SHT30;60269;52.502;16.732;2022-08-21T00:20:04;17.73;96.01
72320;SHT30;60269;52.502;16.732;2022-08-21T00:23:49;17.73;95.95
72320;SHT30;60269;52.502;16.732;2022-08-21T00:27:34;17.74;95.97
72320;SHT30;60269;52.502;16.732;2022-08-21T00:31:19;17.76;96.00
72320;SHT30;60269;52.502;16.732;2022-08-21T00:35:15;17.70;96.05
72320;SHT30;60269;52.502;16.732;2022-08-21T00:39:00;17.73;96.09
72320;SHT30;60269;52.502;16.732;2022-08-21T00:42:46;17.71;96.10
72320;SHT30;60269;52.502;16.732;2022-08-21T00:46:31;17.76;96.13
72320;SHT30;60269;52.502;16.732;2022-08-21T00:50:26;17.79;96.14
72320;SHT30;60269;52.502;16.732;2022-08-21T00:54:13;17.81;96.14
72320;SHT30;60269;52.502;16.732;2022-08-21T00:58:08;17.80;96.15
72320;SHT30;60269;52.502;16.732;2022-08-21T01:05:47;17.71;95.91
72320;SHT30;60269;52.502;16.732;2022-08-21T01:09:32;17.63;95.91
72320;SHT30;60269;52.502;16.732;2022-08-21T01:13:24;17.45;95.86
72320;SHT30;60269;52.502;16.732;2022-08-21T01:17:11;17.36;95.90
72320;SHT30;60269;52.502;16.732;2022-08-21T01:21:12;17.33;95.95
72320;SHT30;60269;52.502;16.732;2022-08-21T01:24:58;17.26;95.96
72320;SHT30;60269;52.502;16.732;2022-08-21T01:28:57;17.26;95.96
72320;SHT30;60269;52.502;16.732;2022-08-21T01:32:44;17.16;96.02
72320;SHT30;60269;52.502;16.732;2022-08-21T01:36:36;17.18;96.02
72320;SHT30;60269;52.502;16.732;2022-08-21T01:40:15;17.15;96.00
72320;SHT30;60269;52.502;16.732;2022-08-21T01:44:08;17.10;96.01
72320;SHT30;60269;52.502;16.732;2022-08-21T01:47:53;17.10;95.99
72320;SHT30;60269;52.502;16.732;2022-08-21T01:51:38;17.05;95.99
72320;SHT30;60269;52.502;16.732;2022-08-21T01:55:23;17.07;95.98
72320;SHT30;60269;52.502;16.732;2022-08-21T01:59:15;17.14;95.98
72320;SHT30;60269;52.502;16.732;2022-08-21T02:02:53;17.11;95.98
72320;SHT30;60269;52.502;16.732;2022-08-21T02:06:45;17.10;95.99
72320;SHT30;60269;52.502;16.732;2022-08-21T02:10:31;17.10;96.00
72320;SHT30;60269;52.502;16.732;2022-08-21T02:14:16;17.05;96.02
72320;SHT30;60269;52.502;16.732;2022-08-21T02:18:10;17.11;96.03
72320;SHT30;60269;52.502;16.732;2022-08-21T02:22:02;17.10;96.02
72320;SHT30;60269;52.502;16.732;2022-08-21T02:25:41;17.07;96.04
72320;SHT30;60269;52.502;16.732;2022-08-21T02:29:33;17.10;96.03
72320;SHT30;60269;52.502;16.732;2022-08-21T02:33:19;17.08;96.10
72320;SHT30;60269;52.502;16.732;2022-08-21T02:37:12;17.10;96.07
72320;SHT30;60269;52.502;16.732;2022-08-21T02:40:57;17.01;96.08
72320;SHT30;60269;52.502;16.732;2022-08-21T02:44:49;17.04;96.16
72320;SHT30;60269;52.502;16.732;2022-08-21T02:48:34;16.95;96.21
72320;SHT30;60269;52.502;16.732;2022-08-21T02:52:20;16.94;96.15
72320;SHT30;60269;52.502;16.732;2022-08-21T02:56:08;16.91;96.14
72320;SHT30;60269;52.502;16.732;2022-08-21T02:59:54;16.87;96.18
72320;SHT30;60269;52.502;16.732;2022-08-21T03:03:41;16.89;96.22
72320;SHT30;60269;52.502;16.732;2022-08-21T03:07:37;16.92;96.29
72320;SHT30;60269;52.502;16.732;2022-08-21T03:11:15;16.92;96.25
72320;SHT30;60269;52.502;16.732;2022-08-21T03:15:11;16.95;96.28
72320;SHT30;60269;52.502;16.732;2022-08-21T03:18:57;16.92;96.23
72320;SHT30;60269;52.502;16.732;2022-08-21T03:22:43;16.96;96.21
72320;SHT30;60269;52.502;16.732;2022-08-21T03:41:40;17.00;96.07
72320;SHT30;60269;52.502;16.732;2022-08-21T03:45:32;17.02;96.08
72320;SHT30;60269;52.502;16.732;2022-08-21T03:49:17;17.01;96.10
72320;SHT30;60269;52.502;16.732;2022-08-21T03:56:54;17.08;96.08
72320;SHT30;60269;52.502;16.732;2022-08-21T04:00:39;17.04;96.10
72320;SHT30;60269;52.502;16.732;2022-08-21T04:04:25;17.08;96.10
72320;SHT30;60269;52.502;16.732;2022-08-21T04:15:48;17.19;96.03
72320;SHT30;60269;52.502;16.732;2022-08-21T04:19:34;17.22;96.01
72320;SHT30;60269;52.502;16.732;2022-08-21T04:27:04;17.26;96.05
72320;SHT30;60269;52.502;16.732;2022-08-21T04:31:03;17.26;96.02
72320;SHT30;60269;52.502;16.732;2022-08-21T04:35:05;17.31;96.01
72320;SHT30;60269;52.502;16.732;2022-08-21T04:38:44;17.32;96.04
72320;SHT30;60269;52.502;16.732;2022-08-21T04:42:50;17.31;96.11
72320;SHT30;60269;52.502;16.732;2022-08-21T04:46:31;17.39;96.12
72320;SHT30;60269;52.502;16.732;2022-08-21T04:50:30;17.47;96.15
72320;SHT30;60269;52.502;16.732;2022-08-21T04:54:17;17.49;96.22
72320;SHT30;60269;52.502;16.732;2022-08-21T04:58:18;17.56;96.25
72320;SHT30;60269;52.502;16.732;2022-08-21T05:02:19;17.59;96.28
72320;SHT30;60269;52.502;16.732;2022-08-21T05:09:59;17.62;96.47
72320;SHT30;60269;52.502;16.732;2022-08-21T05:21:47;17.70;96.82
72320;SHT30;60269;52.502;16.732;2022-08-21T05:25:26;17.71;96.89
72320;SHT30;60269;52.502;16.732;2022-08-21T05:29:18;17.62;96.95
72320;SHT30;60269;52.502;16.732;2022-08-21T05:33:05;17.45;97.10
72320;SHT30;60269;52.502;16.732;2022-08-21T05:36:50;17.38;97.20
72320;SHT30;60269;52.502;16.732;2022-08-21T05:40:35;17.31;97.29
72320;SHT30;60269;52.502;16.732;2022-08-21T05:44:27;17.36;97.32
72320;SHT30;60269;52.502;16.732;2022-08-21T05:48:16;17.32;97.23
72320;SHT30;60269;52.502;16.732;2022-08-21T05:52:02;17.35;97.26
72320;SHT30;60269;52.502;16.732;2022-08-21T05:55:47;17.35;97.29
72320;SHT30;60269;52.502;16.732;2022-08-21T05:59:39;17.04;97.32
72320;SHT30;60269;52.502;16.732;2022-08-21T06:03:24;16.74;97.43
72320;SHT30;60269;52.502;16.732;2022-08-21T06:07:16;16.59;97.52
72320;SHT30;60269;52.502;16.732;2022-08-21T06:11:03;16.54;97.59
72320;SHT30;60269;52.502;16.732;2022-08-21T06:15:04;16.47;97.61
72320;SHT30;60269;52.502;16.732;2022-08-21T06:18:44;16.44;97.65
72320;SHT30;60269;52.502;16.732;2022-08-21T06:22:36;16.36;97.77
72320;SHT30;60269;52.502;16.732;2022-08-21T06:26:15;16.34;97.83
72320;SHT30;60269;52.502;16.732;2022-08-21T06:30:14;16.36;97.79
72320;SHT30;60269;52.502;16.732;2022-08-21T06:34:14;16.32;97.86
72320;SHT30;60269;52.502;16.732;2022-08-21T06:37:52;16.32;97.96
72320;SHT30;60269;52.502;16.732;2022-08-21T06:41:51;16.25;97.92
72320;SHT30;60269;52.502;16.732;2022-08-21T06:45:54;16.22;97.90
72320;SHT30;60269;52.502;16.732;2022-08-21T06:49:32;16.25;98.01
72320;SHT30;60269;52.502;16.732;2022-08-21T06:53:31;16.22;97.93
72320;SHT30;60269;52.502;16.732;2022-08-21T06:57:09;16.25;98.06
72320;SHT30;60269;52.502;16.732;2022-08-21T07:01:08;16.22;98.01
72320;SHT30;60269;52.502;16.732;2022-08-21T07:05:08;16.25;98.03
72320;SHT30;60269;52.502;16.732;2022-08-21T07:08:49;16.37;98.04
72320;SHT30;60269;52.502;16.732;2022-08-21T07:12:49;16.37;97.95
72320;SHT30;60269;52.502;16.732;2022-08-21T07:16:31;16.30;97.98
72320;SHT30;60269;52.502;16.732;2022-08-21T07:20:27;16.33;98.21
72320;SHT30;60269;52.502;16.732;2022-08-21T07:24:06;16.34;98.28
72320;SHT30;60269;52.502;16.732;2022-08-21T07:28:05;16.50;98.16
72320;SHT30;60269;52.502;16.732;2022-08-21T07:31:43;16.50;98.04
72320;SHT30;60269;52.502;16.732;2022-08-21T07:35:35;16.44;98.18
72320;SHT30;60269;52.502;16.732;2022-08-21T07:39:13;16.53;98.14
72320;SHT30;60269;52.502;16.732;2022-08-21T07:43:05;16.75;98.12
72320;SHT30;60269;52.502;16.732;2022-08-21T07:46:43;16.68;98.10
72320;SHT30;60269;52.502;16.732;2022-08-21T07:50:35;16.53;98.10
72320;SHT30;60269;52.502;16.732;2022-08-21T07:54:13;16.64;98.22
72320;SHT30;60269;52.502;16.732;2022-08-21T07:58:18;17.16;97.86
72320;SHT30;60269;52.502;16.732;2022-08-21T08:02:29;17.23;97.56
72320;SHT30;60269;52.502;16.732;2022-08-21T08:06:11;17.26;97.69
72320;SHT30;60269;52.502;16.732;2022-08-21T08:10:10;17.15;97.81
72320;SHT30;60269;52.502;16.732;2022-08-21T08:13:55;17.28;98.03
72320;SHT30;60269;52.502;16.732;2022-08-21T08:17:42;17.28;98.07
72320;SHT30;60269;52.502;16.732;2022-08-21T08:21:27;17.25;98.21
72320;SHT30;60269;52.502;16.732;2022-08-21T08:25:20;17.31;98.24
72320;SHT30;60269;52.502;16.732;2022-08-21T08:28:59;17.46;98.20
72320;SHT30;60269;52.502;16.732;2022-08-21T08:32:51;17.47;98.19
72320;SHT30;60269;52.502;16.732;2022-08-21T08:36:37;17.33;98.32
72320;SHT30;60269;52.502;16.732;2022-08-21T08:40:39;17.28;98.26
72320;SHT30;60269;52.502;16.732;2022-08-21T08:44:25;17.21;98.49
72320;SHT30;60269;52.502;16.732;2022-08-21T08:48:44;17.28;98.62
72320;SHT30;60269;52.502;16.732;2022-08-21T08:52:33;17.31;98.48
72320;SHT30;60269;52.502;16.732;2022-08-21T08:56:26;17.33;98.47
72320;SHT30;60269;52.502;16.732;2022-08-21T09:00:16;17.31;98.71
72320;SHT30;60269;52.502;16.732;2022-08-21T09:04:09;17.28;98.70
72320;SHT30;60269;52.502;16.732;2022-08-21T09:12:12;17.33;98.81
72320;SHT30;60269;52.502;16.732;2022-08-21T09:28:19;17.60;98.77
72320;SHT30;60269;52.502;16.732;2022-08-21T09:32:16;17.69;98.68
72320;SHT30;60269;52.502;16.732;2022-08-21T09:36:39;17.77;98.57
72320;SHT30;60269;52.502;16.732;2022-08-21T09:40:39;17.77;98.66
72320;SHT30;60269;52.502;16.732;2022-08-21T09:44:34;17.73;98.51
72320;SHT30;60269;52.502;16.732;2022-08-21T09:48:22;17.77;98.71
72320;SHT30;60269;52.502;16.732;2022-08-21T09:52:24;17.77;98.82
72320;SHT30;60269;52.502;16.732;2022-08-21T09:56:32;17.83;98.77
72320;SHT30;60269;52.502;16.732;2022-08-21T10:00:32;17.71;98.79
72320;SHT30;60269;52.502;16.732;2022-08-21T10:04:35;17.73;98.98
72320;SHT30;60269;52.502;16.732;2022-08-21T10:08:39;17.83;98.74
72320;SHT30;60269;52.502;16.732;2022-08-21T10:24:20;18.17;98.35
72320;SHT30;60269;52.502;16.732;2022-08-21T10:28:32;18.11;98.34
72320;SHT30;60269;52.502;16.732;2022-08-21T10:32:28;18.08;98.73
72320;SHT30;60269;52.502;16.732;2022-08-21T10:36:39;18.17;98.85
72320;SHT30;60269;52.502;16.732;2022-08-21T10:48:57;18.17;98.24
72320;SHT30;60269;52.502;16.732;2022-08-21T10:52:58;18.17;98.58
72320;SHT30;60269;52.502;16.732;2022-08-21T10:56:47;18.24;98.66
72320;SHT30;60269;52.502;16.732;2022-08-21T11:00:48;18.27;98.50
72320;SHT30;60269;52.502;16.732;2022-08-21T11:08:52;18.38;98.34
72320;SHT30;60269;52.502;16.732;2022-08-21T11:12:47;18.49;98.50
72320;SHT30;60269;52.502;16.732;2022-08-21T11:16:41;18.51;98.14
72320;SHT30;60269;52.502;16.732;2022-08-21T11:20:48;18.45;98.03
72320;SHT30;60269;52.502;16.732;2022-08-21T11:25:03;18.45;98.13
72320;SHT30;60269;52.502;16.732;2022-08-21T11:29:09;18.53;98.05
72320;SHT30;60269;52.502;16.732;2022-08-21T11:41:27;18.86;97.25
72320;SHT30;60269;52.502;16.732;2022-08-21T11:49:25;18.87;97.51
72320;SHT30;60269;52.502;16.732;2022-08-21T11:57:19;18.95;97.69
72320;SHT30;60269;52.502;16.732;2022-08-21T12:01:09;18.90;97.28
72320;SHT30;60269;52.502;16.732;2022-08-21T12:05:12;18.76;97.64
72320;SHT30;60269;52.502;16.732;2022-08-21T12:13:28;18.37;97.76
72320;SHT30;60269;52.502;16.732;2022-08-21T12:17:23;18.31;97.74
72320;SHT30;60269;52.502;16.732;2022-08-21T12:21:26;18.28;98.40
72320;SHT30;60269;52.502;16.732;2022-08-21T12:25:17;18.27;98.53
72320;SHT30;60269;52.502;16.732;2022-08-21T12:29:25;18.22;98.03
72320;SHT30;60269;52.502;16.732;2022-08-21T12:33:17;18.29;98.04
72320;SHT30;60269;52.502;16.732;2022-08-21T12:37:27;18.44;98.30
72320;SHT30;60269;52.502;16.732;2022-08-21T12:41:20;18.55;98.32
72320;SHT30;60269;52.502;16.732;2022-08-21T12:45:42;18.69;98.13
72320;SHT30;60269;52.502;16.732;2022-08-21T12:49:31;18.65;98.48
72320;SHT30;60269;52.502;16.732;2022-08-21T12:53:40;18.69;98.58
72320;SHT30;60269;52.502;16.732;2022-08-21T12:57:22;18.60;98.00
72320;SHT30;60269;52.502;16.732;2022-08-21T13:01:28;18.59;97.77
72320;SHT30;60269;52.502;16.732;2022-08-21T13:05:36;18.49;97.96
72320;SHT30;60269;52.502;16.732;2022-08-21T13:09:16;18.34;98.47
72320;SHT30;60269;52.502;16.732;2022-08-21T13:13:20;18.22;98.49
72320;SHT30;60269;52.502;16.732;2022-08-21T13:17:31;18.21;98.45
72320;SHT30;60269;52.502;16.732;2022-08-21T13:21:14;18.17;98.35
72320;SHT30;60269;52.502;16.732;2022-08-21T13:25:16;18.12;98.58
72320;SHT30;60269;52.502;16.732;2022-08-21T13:29:06;18.05;98.87
72320;SHT30;60269;52.502;16.732;2022-08-21T13:33:02;17.96;98.22
72320;SHT30;60269;52.502;16.732;2022-08-21T13:36:44;17.89;98.10
72320;SHT30;60269;52.502;16.732;2022-08-21T13:40:53;17.90;98.07
72320;SHT30;60269;52.502;16.732;2022-08-21T13:44:53;17.84;98.18
72320;SHT30;60269;52.502;16.732;2022-08-21T13:48:33;17.76;98.38
72320;SHT30;60269;52.502;16.732;2022-08-21T13:52:26;17.73;98.29
72320;SHT30;60269;52.502;16.732;2022-08-21T13:56:05;17.69;98.39
72320;SHT30;60269;52.502;16.732;2022-08-21T14:04:04;17.57;97.20
72320;SHT30;60269;52.502;16.732;2022-08-21T14:08:11;17.50;97.14
72320;SHT30;60269;52.502;16.732;2022-08-21T14:11:52;17.33;96.32
72320;SHT30;60269;52.502;16.732;2022-08-21T14:16:19;17.21;96.57
72320;SHT30;60269;52.502;16.732;2022-08-21T14:19:59;17.19;97.06
72320;SHT30;60269;52.502;16.732;2022-08-21T14:24:25;17.18;96.82
72320;SHT30;60269;52.502;16.732;2022-08-21T14:28:22;17.08;96.11
72320;SHT30;60269;52.502;16.732;2022-08-21T14:32:27;16.95;95.12
72320;SHT30;60269;52.502;16.732;2022-08-21T14:36:15;16.91;95.57
72320;SHT30;60269;52.502;16.732;2022-08-21T14:40:08;16.85;95.39
72320;SHT30;60269;52.502;16.732;2022-08-21T14:43:48;16.80;94.83
72320;SHT30;60269;52.502;16.732;2022-08-21T14:47:54;16.75;94.48
72320;SHT30;60269;52.502;16.732;2022-08-21T14:51:33;16.80;94.47
72320;SHT30;60269;52.502;16.732;2022-08-21T14:55:39;16.75;95.05
72320;SHT30;60269;52.502;16.732;2022-08-21T14:59:38;16.75;94.97
72320;SHT30;60269;52.502;16.732;2022-08-21T15:03:37;16.78;94.98
72320;SHT30;60269;52.502;16.732;2022-08-21T15:07:36;16.81;94.80
72320;SHT30;60269;52.502;16.732;2022-08-21T15:11:18;16.88;95.26
72320;SHT30;60269;52.502;16.732;2022-08-21T15:15:26;16.98;95.64
72320;SHT30;60269;52.502;16.732;2022-08-21T15:19:05;16.96;96.36
72320;SHT30;60269;52.502;16.732;2022-08-21T15:23:08;17.05;96.18
72320;SHT30;60269;52.502;16.732;2022-08-21T15:27:08;17.05;96.83
72320;SHT30;60269;52.502;16.732;2022-08-21T15:30:49;17.08;96.82
72320;SHT30;60269;52.502;16.732;2022-08-21T15:34:40;17.05;96.96
72320;SHT30;60269;52.502;16.732;2022-08-21T15:38:19;17.02;96.26
72320;SHT30;60269;52.502;16.732;2022-08-21T15:42:11;17.08;96.23
72320;SHT30;60269;52.502;16.732;2022-08-21T15:45:51;17.07;95.96
72320;SHT30;60269;52.502;16.732;2022-08-21T15:49:50;17.08;96.44
72320;SHT30;60269;52.502;16.732;2022-08-21T15:53:49;17.14;96.79
72320;SHT30;60269;52.502;16.732;2022-08-21T15:57:51;17.16;96.30
72320;SHT30;60269;52.502;16.732;2022-08-21T16:01:36;17.15;96.56
72320;SHT30;60269;52.502;16.732;2022-08-21T16:05:35;17.16;96.40
72320;SHT30;60269;52.502;16.732;2022-08-21T16:09:14;17.15;96.04
72320;SHT30;60269;52.502;16.732;2022-08-21T16:13:20;17.14;96.21
72320;SHT30;60269;52.502;16.732;2022-08-21T16:17:25;17.15;96.58
72320;SHT30;60269;52.502;16.732;2022-08-21T16:21:06;17.19;96.09
72320;SHT30;60269;52.502;16.732;2022-08-21T16:25:06;17.18;96.35
72320;SHT30;60269;52.502;16.732;2022-08-21T16:28:45;17.18;95.84
72320;SHT30;60269;52.502;16.732;2022-08-21T16:32:46;17.15;95.60
72320;SHT30;60269;52.502;16.732;2022-08-21T16:36:25;17.18;95.73
72320;SHT30;60269;52.502;16.732;2022-08-21T16:40:24;17.21;95.91
72320;SHT30;60269;52.502;16.732;2022-08-21T16:44:06;17.25;95.19
72320;SHT30;60269;52.502;16.732;2022-08-21T16:47:58;17.26;94.84
72320;SHT30;60269;52.502;16.732;2022-08-21T16:51:36;17.26;95.03
72320;SHT30;60269;52.502;16.732;2022-08-21T16:55:28;17.32;94.72
72320;SHT30;60269;52.502;16.732;2022-08-21T16:59:06;17.28;95.30
72320;SHT30;60269;52.502;16.732;2022-08-21T17:02:58;17.33;95.41
72320;SHT30;60269;52.502;16.732;2022-08-21T17:06:43;17.38;94.37
72320;SHT30;60269;52.502;16.732;2022-08-21T17:10:29;17.35;93.98
72320;SHT30;60269;52.502;16.732;2022-08-21T17:14:17;17.36;93.90
72320;SHT30;60269;52.502;16.732;2022-08-21T17:18:19;17.36;93.56
72320;SHT30;60269;52.502;16.732;2022-08-21T17:21:58;17.36;92.13
72320;SHT30;60269;52.502;16.732;2022-08-21T17:25:52;17.32;92.12
72320;SHT30;60269;52.502;16.732;2022-08-21T17:29:36;17.31;91.65
72320;SHT30;60269;52.502;16.732;2022-08-21T17:33:39;17.32;91.72
72320;SHT30;60269;52.502;16.732;2022-08-21T17:37:19;17.32;92.04
72320;SHT30;60269;52.502;16.732;2022-08-21T17:41:13;17.39;92.19
72320;SHT30;60269;52.502;16.732;2022-08-21T17:44:52;17.66;90.49
72320;SHT30;60269;52.502;16.732;2022-08-21T17:48:44;17.52;90.13
72320;SHT30;60269;52.502;16.732;2022-08-21T17:52:22;17.47;89.82
72320;SHT30;60269;52.502;16.732;2022-08-21T17:56:26;17.18;91.20
72320;SHT30;60269;52.502;16.732;2022-08-21T18:00:09;17.02;92.08
72320;SHT30;60269;52.502;16.732;2022-08-21T18:04:01;16.95;92.07
72320;SHT30;60269;52.502;16.732;2022-08-21T18:07:40;16.87;91.89
72320;SHT30;60269;52.502;16.732;2022-08-21T18:11:39;16.77;92.77
72320;SHT30;60269;52.502;16.732;2022-08-21T18:15:43;16.73;92.73
72320;SHT30;60269;52.502;16.732;2022-08-21T18:19:43;16.65;93.33
72320;SHT30;60269;52.502;16.732;2022-08-21T18:23:21;16.56;94.22
72320;SHT30;60269;52.502;16.732;2022-08-21T18:27:28;16.53;94.54
72320;SHT30;60269;52.502;16.732;2022-08-21T18:31:29;16.50;94.76
72320;SHT30;60269;52.502;16.732;2022-08-21T18:35:09;16.52;94.76
72320;SHT30;60269;52.502;16.732;2022-08-21T18:39:02;16.49;95.22
72320;SHT30;60269;52.502;16.732;2022-08-21T18:43:09;16.46;95.52
72320;SHT30;60269;52.502;16.732;2022-08-21T18:47:05;16.39;96.11
72320;SHT30;60269;52.502;16.732;2022-08-21T18:50:50;16.39;96.10
72320;SHT30;60269;52.502;16.732;2022-08-21T18:54:43;16.37;96.49
72320;SHT30;60269;52.502;16.732;2022-08-21T18:58:22;16.39;95.94
72320;SHT30;60269;52.502;16.732;2022-08-21T19:02:13;16.29;96.67
72320;SHT30;60269;52.502;16.732;2022-08-21T19:05:53;16.33;96.23
72320;SHT30;60269;52.502;16.732;2022-08-21T19:10:07;16.23;96.85
72320;SHT30;60269;52.502;16.732;2022-08-21T19:14:11;16.26;96.34
72320;SHT30;60269;52.502;16.732;2022-08-21T19:18:09;16.29;95.91
72320;SHT30;60269;52.502;16.732;2022-08-21T19:22:05;16.26;94.93
72320;SHT30;60269;52.502;16.732;2022-08-21T19:25:52;16.25;94.49
72320;SHT30;60269;52.502;16.732;2022-08-21T19:29:39;16.19;94.67
72320;SHT30;60269;52.502;16.732;2022-08-21T19:33:33;16.13;94.91
72320;SHT30;60269;52.502;16.732;2022-08-21T19:37:13;16.09;95.14
72320;SHT30;60269;52.502;16.732;2022-08-21T19:41:09;16.02;95.51
72320;SHT30;60269;52.502;16.732;2022-08-21T19:44:55;15.95;96.00
72320;SHT30;60269;52.502;16.732;2022-08-21T19:48:46;15.91;96.35
72320;SHT30;60269;52.502;16.732;2022-08-21T19:52:32;15.94;95.26
72320;SHT30;60269;52.502;16.732;2022-08-21T19:56:35;15.91;94.38
72320;SHT30;60269;52.502;16.732;2022-08-21T20:00:15;15.89;94.15
72320;SHT30;60269;52.502;16.732;2022-08-21T20:04:07;15.84;94.34
72320;SHT30;60269;52.502;16.732;2022-08-21T20:08:06;15.86;94.05
72320;SHT30;60269;52.502;16.732;2022-08-21T20:12:06;15.79;93.96
72320;SHT30;60269;52.502;16.732;2022-08-21T20:16:07;15.84;94.11
72320;SHT30;60269;52.502;16.732;2022-08-21T20:19:48;15.88;93.80
72320;SHT30;60269;52.502;16.732;2022-08-21T20:23:47;15.81;93.94
72320;SHT30;60269;52.502;16.732;2022-08-21T20:27:32;15.78;94.09
72320;SHT30;60269;52.502;16.732;2022-08-21T20:31:18;15.72;94.43
72320;SHT30;60269;52.502;16.732;2022-08-21T20:35:05;15.74;94.81
72320;SHT30;60269;52.502;16.732;2022-08-21T20:39:00;15.74;94.84
72320;SHT30;60269;52.502;16.732;2022-08-21T20:42:41;15.75;94.46
72320;SHT30;60269;52.502;16.732;2022-08-21T20:46:34;15.68;94.94
72320;SHT30;60269;52.502;16.732;2022-08-21T20:50:23;15.69;94.54
72320;SHT30;60269;52.502;16.732;2022-08-21T20:54:36;15.67;94.39
72320;SHT30;60269;52.502;16.732;2022-08-21T20:58:31;15.65;94.42
72320;SHT30;60269;52.502;16.732;2022-08-21T21:02:48;15.67;94.34
72320;SHT30;60269;52.502;16.732;2022-08-21T21:06:35;15.69;93.86
72320;SHT30;60269;52.502;16.732;2022-08-21T21:14:40;15.65;93.90
72320;SHT30;60269;52.502;16.732;2022-08-21T21:18:46;15.59;93.43
72320;SHT30;60269;52.502;16.732;2022-08-21T21:22:44;15.64;93.24
72320;SHT30;60269;52.502;16.732;2022-08-21T21:30:39;15.69;92.21
72320;SHT30;60269;52.502;16.732;2022-08-21T21:34:39;15.65;92.15
72320;SHT30;60269;52.502;16.732;2022-08-21T21:38:23;15.58;92.23
72320;SHT30;60269;52.502;16.732;2022-08-21T21:42:50;15.59;91.78
72320;SHT30;60269;52.502;16.732;2022-08-21T21:47:00;15.57;92.02
72320;SHT30;60269;52.502;16.732;2022-08-21T21:51:01;15.44;92.10
72320;SHT30;60269;52.502;16.732;2022-08-21T21:55:27;15.43;92.30
72320;SHT30;60269;52.502;16.732;2022-08-21T21:59:30;15.46;91.74
72320;SHT30;60269;52.502;16.732;2022-08-21T22:03:25;15.46;91.66
72320;SHT30;60269;52.502;16.732;2022-08-21T22:07:24;15.46;91.88
72320;SHT30;60269;52.502;16.732;2022-08-21T22:15:48;15.30;92.46
72320;SHT30;60269;52.502;16.732;2022-08-21T22:19:38;15.27;92.65
72320;SHT30;60269;52.502;16.732;2022-08-21T22:23:29;15.24;92.77
72320;SHT30;60269;52.502;16.732;2022-08-21T22:27:28;15.33;92.72
72320;SHT30;60269;52.502;16.732;2022-08-21T22:31:27;15.34;93.00
72320;SHT30;60269;52.502;16.732;2022-08-21T22:38:58;15.24;93.19
72320;SHT30;60269;52.502;16.732;2022-08-21T22:42:56;15.26;92.74
72320;SHT30;60269;52.502;16.732;2022-08-21T22:46:51;15.31;92.21
72320;SHT30;60269;52.502;16.732;2022-08-21T22:50:37;15.31;92.33
72320;SHT30;60269;52.502;16.732;2022-08-21T22:54:40;15.30;92.47
72320;SHT30;60269;52.502;16.732;2022-08-21T22:58:56;15.28;92.33
72320;SHT30;60269;52.502;16.732;2022-08-21T23:06:42;15.27;92.46
72320;SHT30;60269;52.502;16.732;2022-08-21T23:10:29;15.27;92.54
72320;SHT30;60269;52.502;16.732;2022-08-21T23:14:25;15.26;92.76
72320;SHT30;60269;52.502;16.732;2022-08-21T23:26:27;15.24;92.94
72320;SHT30;60269;52.502;16.732;2022-08-21T23:30:16;15.24;92.86
72320;SHT30;60269;52.502;16.732;2022-08-21T23:34:24;15.24;92.94
72320;SHT30;60269;52.502;16.732;2022-08-21T23:38:33;15.26;92.81
72320;SHT30;60269;52.502;16.732;2022-08-21T23:51:29;15.19;92.12
